Time,TemperatureF,DewpointF,PressureIn,WindDirection,WindDirectionDegrees,WindSpeedMPH,WindSpeedGustMPH,Humidity,HourlyPrecipIn,Conditions,Clouds,dailyrainin,SoftwareType,DateUTC
2013-03-29 00:00:00,34.1,26.4,30.49,NE,45,0.0,0.0,73,0.00,,,0.00,VWS V14.01,2013-03-29 04:00:00,
2013-03-29 00:30:00,32.7,26.0,30.50,NE,45,0.0,0.0,76,0.00,,,0.00,VWS V14.01,2013-03-29 04:30:00,
2013-03-29 01:00:00,31.4,25.4,30.50,NE,45,0.0,0.0,78,0.00,,,0.00,VWS V14.01,2013-03-29 05:00:00,
2013-03-29 01:30:00,32.7,26.0,30.50,NE,45,0.0,0.0,76,0.00,,,0.00,VWS V14.01,2013-03-29 05:30:00,
2013-03-29 02:00:00,29.6,25.1,30.49,NE,45,0.0,0.0,83,0.00,,,0.00,VWS V14.01,2013-03-29 06:00:00,
2013-03-29 02:30:00,28.7,24.5,30.50,NE,45,0.0,0.0,84,0.00,,,0.00,VWS V14.01,2013-03-29 06:30:00,
2013-03-29 03:00:00,28.1,24.5,30.49,NE,45,0.0,0.0,86,0.00,,,0.00,VWS V14.01,2013-03-29 07:00:00,
2013-03-29 03:30:00,27.7,24.3,30.49,NE,45,0.0,0.0,87,0.00,,,0.00,VWS V14.01,2013-03-29 07:30:00,
2013-03-29 04:00:00,27.2,24.1,30.49,NE,45,0.0,0.0,88,0.00,,,0.00,VWS V14.01,2013-03-29 08:00:00,
2013-03-29 04:30:00,26.7,23.6,30.49,NE,45,0.0,0.0,88,0.00,,,0.00,VWS V14.01,2013-03-29 08:30:00,
2013-03-29 05:00:00,26.3,23.5,30.49,NE,45,0.0,0.0,89,0.00,,,0.00,VWS V14.01,2013-03-29 09:00:00,
2013-03-29 05:30:00,25.9,23.1,30.49,NE,45,0.0,0.0,89,0.00,,,0.00,VWS V14.01,2013-03-29 09:30:00,
2013-03-29 06:00:00,25.5,23.0,30.50,NE,45,0.0,0.0,90,0.00,,,0.00,VWS V14.01,2013-03-29 10:00:00,
2013-03-29 06:30:00,25.2,22.7,30.50,NE,45,0.0,0.0,90,0.00,,,0.00,VWS V14.01,2013-03-29 10:30:00,
2013-03-29 07:00:00,24.8,22.3,30.51,NE,45,0.0,0.0,90,0.00,,,0.00,VWS V14.01,2013-03-29 11:00:00,
2013-03-29 07:30:00,24.5,22.2,30.52,NE,45,0.0,0.0,91,0.00,,,0.00,VWS V14.01,2013-03-29 11:30:00,
2013-03-29 08:00:00,27.6,25.8,30.53,NE,45,0.0,0.0,93,0.00,,,0.00,VWS V14.01,2013-03-29 12:00:00,
2013-03-29 08:30:00,32.3,30.2,30.54,NE,45,0.0,0.0,92,0.00,,,0.00,VWS V14.01,2013-03-29 12:30:00,
2013-03-29 09:00:00,41.0,32.0,30.53,NNW,338,0.0,2.0,70,0.00,,,0.00,VWS V14.01,2013-03-29 13:00:00,
2013-03-29 09:30:00,46.7,33.2,30.53,NNE,22,0.0,6.0,59,0.00,,,0.00,VWS V14.01,2013-03-29 13:30:00,
2013-03-29 10:00:00,49.6,31.2,30.51,NE,45,1.0,5.0,49,0.00,,,0.00,VWS V14.01,2013-03-29 14:00:00,
2013-03-29 10:30:00,50.8,31.3,30.52,NE,45,1.0,5.0,47,0.00,,,0.00,VWS V14.01,2013-03-29 14:30:00,
2013-03-29 11:00:00,51.0,28.7,30.52,NNE,22,1.0,7.0,42,0.00,,,0.00,VWS V14.01,2013-03-29 15:00:00,
2013-03-29 11:30:00,53.2,33.5,30.52,NNE,22,1.0,13.0,47,0.00,,,0.00,VWS V14.01,2013-03-29 15:30:00,
2013-03-29 12:00:00,53.0,32.8,30.50,NE,45,1.0,10.0,46,0.00,,,0.00,VWS V14.01,2013-03-29 16:00:00,
2013-03-29 12:30:00,54.1,30.3,30.48,NNE,22,2.0,13.0,40,0.00,,,0.00,VWS V14.01,2013-03-29 16:30:00,
2013-03-29 13:00:00,55.0,32.9,30.47,NNE,22,2.0,10.0,43,0.00,,,0.00,VWS V14.01,2013-03-29 17:00:00,
2013-03-29 13:30:00,55.9,30.7,30.45,NNE,22,2.0,9.0,38,0.00,,,0.00,VWS V14.01,2013-03-29 17:30:00,
2013-03-29 14:00:00,56.9,30.2,30.44,NNE,22,3.0,14.0,36,0.00,,,0.00,VWS V14.01,2013-03-29 18:00:00,
2013-03-29 14:30:00,57.8,30.4,30.42,NNE,22,2.0,12.0,35,0.00,,,0.00,VWS V14.01,2013-03-29 18:30:00,
2013-03-29 15:00:00,56.9,30.2,30.44,NNE,22,3.0,14.0,36,0.00,,,0.00,VWS V14.01,2013-03-29 19:00:00,
2013-03-29 15:30:00,59.0,29.2,30.40,NW,315,1.0,12.0,32,0.00,,,0.00,VWS V14.01,2013-03-29 19:30:00,
2013-03-29 16:00:00,59.2,31.6,30.39,WNW,292,2.0,14.0,35,0.00,,,0.00,VWS V14.01,2013-03-29 20:00:00,
2013-03-29 16:30:00,58.6,31.0,30.38,SW,225,2.0,14.0,35,0.00,,,0.00,VWS V14.01,2013-03-29 20:30:00,
2013-03-29 17:00:00,59.1,30.8,30.38,SW,225,1.0,7.0,34,0.00,,,0.00,VWS V14.01,2013-03-29 21:00:00,
2013-03-29 17:30:00,58.8,31.2,30.36,SW,225,1.0,10.0,35,0.00,,,0.00,VWS V14.01,2013-03-29 21:30:00,
2013-03-29 18:00:00,58.5,29.5,30.36,SW,225,1.0,7.0,33,0.00,,,0.00,VWS V14.01,2013-03-29 22:00:00,
2013-03-29 18:30:00,57.7,30.3,30.36,SW,225,0.0,7.0,35,0.00,,,0.00,VWS V14.01,2013-03-29 22:30:00,
2013-03-29 19:00:00,57.0,29.6,30.36,SSW,202,0.0,6.0,35,0.00,,,0.00,VWS V14.01,2013-03-29 23:00:00,
2013-03-29 19:30:00,55.8,30.6,30.37,SSW,202,0.0,0.0,38,0.00,,,0.00,VWS V14.01,2013-03-29 23:30:00,
2013-03-29 20:00:00,53.3,30.2,30.37,SSW,202,0.0,0.0,41,0.00,,,0.00,VWS V14.01,2013-03-30 00:00:00,
2013-03-29 20:30:00,50.0,33.6,30.38,SSW,202,0.0,0.0,53,0.00,,,0.00,VWS V14.01,2013-03-30 00:30:00,
2013-03-29 21:00:00,47.0,32.1,30.38,SSW,202,0.0,0.0,56,0.00,,,0.00,VWS V14.01,2013-03-30 01:00:00,
2013-03-29 21:30:00,45.0,34.0,30.39,SSW,202,0.0,0.0,65,0.00,,,0.00,VWS V14.01,2013-03-30 01:30:00,
2013-03-29 22:00:00,43.8,33.9,30.40,NW,315,0.0,3.0,68,0.00,,,0.00,VWS V14.01,2013-03-30 02:00:00,
2013-03-29 22:30:00,44.6,34.3,30.40,NW,315,0.0,2.0,67,0.00,,,0.00,VWS V14.01,2013-03-30 02:30:00,
2013-03-29 23:00:00,45.0,34.0,30.40,NW,315,0.0,0.0,65,0.00,,,0.00,VWS V14.01,2013-03-30 03:00:00,
2013-03-29 23:30:00,45.0,35.1,30.40,NW,315,0.0,0.0,68,0.00,,,0.00,VWS V14.01,2013-03-30 03:30:00,